MMPB/PBC METAR and TAF weather

Enter ICAO airport designator
Station Type Date Time Source
MMPB METAR 2020/07/14 23:41 UTC NOAA

MMPB 142341Z 03010KT 8SM BKN020CB 17/13 A3029 RMK 8/900 HZY PCPN N-E


Station Type Date Time Source
MMPB Decoded METAR 2020/07/14 23:41 UTC NOAA

Puebla, Pue., Mexico (MMPB) 19-03N 098-10W
Jul 14, 2020 - 07:41 PM EDT / 2020.07.14 2341 UTC
Wind: from the NNE (030 degrees) at 12 MPH (10 KT):0
Visibility: 8 mile(s):0
Sky conditions: mostly cloudy
Weather: Cumulonimbus clouds observed
Temperature: 62 F (17 C)
Dew Point: 55 F (13 C)
Relative Humidity: 77%
Pressure (altimeter): 30.29 in. Hg (1025 hPa)
ob: MMPB 142341Z 03010KT 8SM BKN020CB 17/13 A3029 RMK 8/900 HZY PCPN N-E
cycle: 23

Station Type Date Time Source
MMPB TAF 2020/07/15 06:57 UTC NOAA

TAF MMPB 150357Z 1506/1606 03005KT 6SM HZ SCT100 BKN200
FM151800 16010KT P6SM SCT020 SCT200
TEMPO 1522/1602 6SM TSRA BKN020CB

Example: see airport list